Time;durP1;ratioP1;P1;durP2;ratioP2;P2;SDS_P1;SDS_P2;PMS_P1;PMS_P2;Temp;Humidity;BMP_temperature;BMP_pressure;BME280_temperature;BME280_humidity;BME280_pressure;Samples;Min_cycle;Max_cycle;Signal;HPM_P1;HPM_P2
2023/12/20 00:02:17;;;;;;;0.70;0.70;;;6.00;1.00;;;;;;5036883;28;20176;-81
2023/12/20 00:04:42;;;;;;;0.70;0.70;;;6.00;1.00;;;;;;5037110;28;20208;-81
2023/12/20 00:07:09;;;;;;;0.70;0.70;;;6.00;1.00;;;;;;5036451;28;20697;-81
2023/12/20 00:09:35;;;;;;;0.70;0.70;;;6.00;1.00;;;;;;5036600;28;20263;-82
2023/12/20 00:12:00;;;;;;;0.70;0.70;;;6.00;1.00;;;;;;5036249;28;20195;-81
2023/12/20 00:14:26;;;;;;;0.80;0.80;;;6.10;1.00;;;;;;5036690;28;20207;-81
2023/12/20 00:16:51;;;;;;;0.70;0.70;;;6.00;1.00;;;;;;5035503;28;20694;-80
2023/12/20 00:19:17;;;;;;;0.70;0.70;;;6.10;1.00;;;;;;5035968;28;20191;-82
2023/12/20 00:21:48;;;;;;;0.77;0.77;;;6.10;1.00;;;;;;5036206;28;20688;-80
2023/12/20 00:24:14;;;;;;;0.80;0.80;;;6.10;1.00;;;;;;5035432;28;20215;-81
2023/12/20 00:26:39;;;;;;;0.80;0.80;;;6.10;1.00;;;;;;5034733;28;20257;-82
2023/12/20 00:29:05;;;;;;;0.80;0.80;;;6.10;1.00;;;;;;5035778;28;20222;-81
2023/12/20 00:31:30;;;;;;;0.70;0.70;;;6.10;1.00;;;;;;5034520;28;20168;-80
2023/12/20 00:33:56;;;;;;;0.70;0.70;;;6.10;1.00;;;;;;5033646;28;20176;-81
2023/12/20 00:36:21;;;;;;;0.80;0.80;;;6.20;1.00;;;;;;5034961;28;20192;-80
2023/12/20 00:38:48;;;;;;;0.73;0.73;;;6.20;1.00;;;;;;5035379;28;20183;-81
2023/12/20 00:41:13;;;;;;;0.70;0.70;;;6.10;1.00;;;;;;5034895;28;20191;-82
2023/12/20 00:43:39;;;;;;;0.73;0.73;;;6.10;1.00;;;;;;5034983;28;20642;-81
2023/12/20 00:46:04;;;;;;;0.83;0.83;;;6.10;1.00;;;;;;5034613;28;20654;-81
2023/12/20 00:48:31;;;;;;;0.70;0.70;;;6.10;1.00;;;;;;5033425;28;20762;-82
2023/12/20 00:50:57;;;;;;;0.70;0.70;;;6.00;1.00;;;;;;5034162;28;20160;-82
2023/12/20 00:53:23;;;;;;;0.60;0.60;;;6.00;1.00;;;;;;5034876;28;20180;-80
2023/12/20 00:55:49;;;;;;;0.80;0.80;;;5.90;1.00;;;;;;5033882;28;20192;-82
2023/12/20 00:58:15;;;;;;;0.70;0.70;;;5.90;1.00;;;;;;5034072;28;20271;-82
2023/12/20 01:00:42;;;;;;;0.70;0.70;;;5.90;1.00;;;;;;5034776;28;20546;-80
2023/12/20 01:03:08;;;;;;;0.80;0.80;;;5.80;1.00;;;;;;5034645;28;20179;-82
2023/12/20 01:05:33;;;;;;;0.80;0.80;;;5.80;4.40;;;;;;5033957;28;20234;-81
2023/12/20 01:07:59;;;;;;;0.80;0.80;;;5.80;21.20;;;;;;5034975;28;20204;-81
2023/12/20 01:10:28;;;;;;;0.70;0.70;;;5.70;47.10;;;;;;5034641;28;20191;-80
2023/12/20 01:12:53;;;;;;;0.70;0.70;;;5.70;87.00;;;;;;5034790;28;20183;-81
2023/12/20 01:15:19;;;;;;;0.80;0.80;;;5.80;90.00;;;;;;5034927;28;20183;-80
2023/12/20 01:17:45;;;;;;;0.80;0.80;;;5.80;99.90;;;;;;5034701;28;20261;-81
2023/12/20 01:20:10;;;;;;;0.77;0.77;;;5.80;99.90;;;;;;5038688;28;20761;-82
2023/12/20 01:22:36;;;;;;;0.70;0.70;;;5.80;99.90;;;;;;5038836;28;20203;-81
2023/12/20 01:25:02;;;;;;;0.80;0.80;;;5.80;99.90;;;;;;5038615;28;20206;-82
2023/12/20 01:27:28;;;;;;;0.80;0.80;;;5.80;99.90;;;;;;5038096;28;20203;-81
2023/12/20 01:29:54;;;;;;;0.80;0.80;;;5.80;99.90;;;;;;5038868;28;20175;-82
2023/12/20 01:32:19;;;;;;;0.90;0.90;;;5.70;99.90;;;;;;5038047;28;20175;-82
2023/12/20 01:34:45;;;;;;;0.80;0.80;;;5.70;99.90;;;;;;5038324;28;20172;-80
2023/12/20 01:37:10;;;;;;;0.70;0.70;;;5.70;99.90;;;;;;5037199;28;20200;-81
2023/12/20 01:39:36;;;;;;;0.63;0.63;;;5.70;99.90;;;;;;5037331;28;20635;-81
2023/12/20 01:42:02;;;;;;;0.80;0.80;;;5.70;99.90;;;;;;5037937;28;20190;-81
2023/12/20 01:44:27;;;;;;;0.77;0.77;;;5.60;99.90;;;;;;5035911;28;20203;-82
2023/12/20 01:46:53;;;;;;;0.73;0.73;;;5.60;99.90;;;;;;5036739;28;20203;-83
2023/12/20 01:49:19;;;;;;;0.70;0.70;;;5.60;99.90;;;;;;5037490;28;20258;-82
2023/12/20 01:51:46;;;;;;;0.80;0.80;;;5.60;99.90;;;;;;5037707;28;20175;-80
2023/12/20 01:54:12;;;;;;;0.80;0.80;;;5.60;99.90;;;;;;5040810;28;20302;-80
2023/12/20 01:56:39;;;;;;;0.80;0.80;;;5.60;99.90;;;;;;5039811;28;20200;-81
2023/12/20 01:59:05;;;;;;;0.70;0.70;;;5.60;99.90;;;;;;5039504;28;20199;-81
2023/12/20 02:01:31;;;;;;;0.70;0.70;;;5.60;99.90;;;;;;5038513;28;20308;-81
2023/12/20 02:03:57;;;;;;;0.73;0.73;;;5.60;99.90;;;;;;5036450;28;20250;-81
2023/12/20 02:06:24;;;;;;;0.70;0.70;;;5.50;99.90;;;;;;5034360;28;20187;-81
2023/12/20 02:08:50;;;;;;;0.70;0.70;;;5.50;99.90;;;;;;5034350;28;20263;-80
2023/12/20 02:11:16;;;;;;;0.70;0.70;;;5.60;99.90;;;;;;5035148;28;20206;-80
2023/12/20 02:13:42;;;;;;;0.70;0.70;;;5.60;99.90;;;;;;5034864;28;20203;-80
2023/12/20 02:16:08;;;;;;;0.70;0.70;;;5.60;99.90;;;;;;5034197;28;20196;-80
2023/12/20 02:18:33;;;;;;;0.70;0.70;;;5.50;99.90;;;;;;5033951;28;20780;-80
2023/12/20 02:20:59;;;;;;;0.70;0.70;;;5.60;99.90;;;;;;5035043;28;20187;-80
2023/12/20 02:23:25;;;;;;;0.80;0.80;;;5.60;99.90;;;;;;5036309;28;20287;-80
2023/12/20 02:25:51;;;;;;;0.70;0.70;;;5.50;99.90;;;;;;5054888;28;20214;-78
2023/12/20 02:28:17;;;;;;;0.70;0.70;;;5.50;99.90;;;;;;5058156;28;20164;-79
2023/12/20 02:30:42;;;;;;;0.70;0.70;;;5.50;99.90;;;;;;5058051;28;20177;-79
2023/12/20 02:33:11;;;;;;;0.70;0.70;;;5.50;99.90;;;;;;5051721;28;20180;-81
2023/12/20 02:35:37;;;;;;;0.80;0.80;;;5.50;99.90;;;;;;5036708;28;20199;-81
2023/12/20 02:38:03;;;;;;;0.60;0.60;;;5.50;99.90;;;;;;5037285;28;20266;-81
2023/12/20 02:40:28;;;;;;;0.70;0.70;;;5.50;99.90;;;;;;5037381;28;20172;-81
2023/12/20 02:42:54;;;;;;;0.80;0.80;;;5.00;99.90;;;;;;5037493;28;20168;-80
2023/12/20 02:45:19;;;;;;;0.70;0.70;;;5.50;99.90;;;;;;5036260;28;20773;-81
2023/12/20 02:47:45;;;;;;;0.70;0.70;;;5.50;99.90;;;;;;5037078;28;20207;-81
2023/12/20 02:50:10;;;;;;;0.60;0.60;;;5.50;99.90;;;;;;5037182;28;20187;-81
2023/12/20 02:52:36;;;;;;;0.80;0.80;;;5.40;99.90;;;;;;5037514;28;20180;-81
2023/12/20 02:55:01;;;;;;;0.80;0.80;;;5.40;99.90;;;;;;5037251;28;20172;-81
2023/12/20 02:57:27;;;;;;;0.73;0.73;;;5.40;99.90;;;;;;5036886;28;20232;-81
2023/12/20 02:59:52;;;;;;;0.80;0.80;;;5.40;99.90;;;;;;5037248;28;20239;-80
2023/12/20 03:02:18;;;;;;;0.70;0.70;;;5.40;99.90;;;;;;5037785;28;20214;-79
2023/12/20 03:04:43;;;;;;;0.70;0.70;;;5.40;99.90;;;;;;5037233;28;20204;-82
2023/12/20 03:07:09;;;;;;;0.73;0.73;;;5.50;99.90;;;;;;5036679;28;20219;-81
2023/12/20 03:09:35;;;;;;;0.70;0.70;;;5.50;99.90;;;;;;5036949;28;20187;-80
2023/12/20 03:12:01;;;;;;;0.80;0.80;;;5.40;99.90;;;;;;5037348;28;20183;-81
2023/12/20 03:14:26;;;;;;;0.70;0.70;;;5.40;99.90;;;;;;5037358;28;20176;-82
2023/12/20 03:16:52;;;;;;;0.70;0.70;;;5.40;99.90;;;;;;5036649;28;20613;-79
2023/12/20 03:19:19;;;;;;;0.70;0.70;;;5.40;99.90;;;;;;5037914;28;20179;-81
2023/12/20 03:21:44;;;;;;;0.70;0.70;;;5.40;99.90;;;;;;5035723;28;20188;-81
2023/12/20 03:24:10;;;;;;;0.67;0.67;;;5.40;99.90;;;;;;5036554;28;20554;-81
2023/12/20 03:26:35;;;;;;;0.70;0.70;;;5.40;99.90;;;;;;5036627;28;20203;-81
2023/12/20 03:29:01;;;;;;;0.77;0.77;;;5.40;99.90;;;;;;5035645;28;20374;-81
2023/12/20 03:31:27;;;;;;;0.70;0.70;;;5.40;99.90;;;;;;5037361;28;20646;-81
2023/12/20 03:33:53;;;;;;;0.73;0.73;;;5.40;99.90;;;;;;5036808;28;20200;-81
2023/12/20 03:36:19;;;;;;;0.67;0.67;;;5.40;99.90;;;;;;5036552;28;20199;-81
2023/12/20 03:38:45;;;;;;;0.70;0.70;;;5.30;99.90;;;;;;5037239;28;20176;-81
2023/12/20 03:41:11;;;;;;;0.70;0.70;;;5.30;99.90;;;;;;5036497;28;20267;-81
2023/12/20 03:43:36;;;;;;;0.80;0.80;;;5.20;99.90;;;;;;5037833;28;20174;-80
2023/12/20 03:46:03;;;;;;;0.77;0.77;;;5.20;99.90;;;;;;5035855;28;20257;-82
2023/12/20 03:48:30;;;;;;;0.70;0.70;;;5.20;99.90;;;;;;5038113;28;20229;-81
2023/12/20 03:50:57;;;;;;;0.70;0.70;;;5.20;99.90;;;;;;5037686;28;20175;-81
2023/12/20 03:53:22;;;;;;;0.70;0.70;;;5.20;99.90;;;;;;5037821;28;20178;-80
2023/12/20 03:55:48;;;;;;;0.70;0.70;;;5.20;99.90;;;;;;5036754;28;20200;-81
2023/12/20 03:58:13;;;;;;;0.70;0.70;;;5.20;99.90;;;;;;5037971;28;20244;-81
2023/12/20 04:00:39;;;;;;;0.80;0.80;;;5.30;99.90;;;;;;5037967;28;20199;-82
2023/12/20 04:03:05;;;;;;;0.80;0.80;;;5.30;99.90;;;;;;5037595;28;20180;-80
2023/12/20 04:05:31;;;;;;;0.70;0.70;;;5.30;99.90;;;;;;5036989;28;20208;-81
2023/12/20 04:07:56;;;;;;;0.80;0.80;;;5.30;99.90;;;;;;5037750;28;20175;-81
2023/12/20 04:10:22;;;;;;;0.70;0.70;;;5.30;99.90;;;;;;5038038;28;20176;-82
2023/12/20 04:12:47;;;;;;;0.80;0.80;;;5.30;99.90;;;;;;5037374;28;20192;-81
2023/12/20 04:15:13;;;;;;;0.70;0.70;;;5.20;99.90;;;;;;5038205;28;20175;-81
2023/12/20 04:17:38;;;;;;;0.70;0.70;;;5.20;99.90;;;;;;5037286;28;20203;-81
2023/12/20 04:20:05;;;;;;;0.70;0.70;;;5.20;99.90;;;;;;5038059;28;20191;-81
2023/12/20 04:22:30;;;;;;;0.70;0.70;;;5.20;99.90;;;;;;5041630;28;20172;-79
2023/12/20 04:24:56;;;;;;;0.80;0.80;;;5.20;99.90;;;;;;5056310;28;20233;-79
2023/12/20 04:27:21;;;;;;;0.90;0.90;;;5.20;99.90;;;;;;5055442;28;20198;-80
2023/12/20 04:29:47;;;;;;;0.80;0.80;;;5.20;99.90;;;;;;5038155;28;20183;-81
2023/12/20 04:32:12;;;;;;;0.80;0.80;;;5.20;99.90;;;;;;5032734;28;20187;-82
2023/12/20 04:34:38;;;;;;;0.80;0.80;;;5.20;99.90;;;;;;5032774;28;20194;-80
2023/12/20 04:37:04;;;;;;;0.80;0.80;;;5.20;99.90;;;;;;5033338;28;20203;-81
2023/12/20 04:39:29;;;;;;;0.80;0.80;;;5.20;99.90;;;;;;5033743;28;20178;-81
2023/12/20 04:41:55;;;;;;;0.80;0.80;;;5.20;99.90;;;;;;5022905;28;20168;-83
2023/12/20 04:44:20;;;;;;;0.73;0.73;;;5.20;99.90;;;;;;5013067;28;20257;-83
2023/12/20 04:46:46;;;;;;;0.70;0.70;;;5.20;99.90;;;;;;5013511;28;20219;-82
2023/12/20 04:49:12;;;;;;;0.80;0.80;;;5.10;99.90;;;;;;5014687;28;20196;-81
2023/12/20 04:51:38;;;;;;;0.80;0.80;;;5.20;99.90;;;;;;5013095;28;20180;-80
2023/12/20 04:54:03;;;;;;;0.70;0.70;;;5.20;99.90;;;;;;5014836;28;20604;-81
2023/12/20 04:56:29;;;;;;;0.70;0.70;;;5.30;99.90;;;;;;5016242;28;20193;-81
2023/12/20 04:58:54;;;;;;;0.80;0.80;;;5.20;99.90;;;;;;5016885;28;20216;-82
2023/12/20 05:01:21;;;;;;;0.70;0.70;;;5.20;99.90;;;;;;5016905;28;20203;-83
2023/12/20 05:03:47;;;;;;;0.80;0.80;;;5.20;99.90;;;;;;5020774;28;20191;-81
2023/12/20 05:06:12;;;;;;;0.80;0.80;;;5.10;99.90;;;;;;5035531;28;20564;-82
2023/12/20 05:08:38;;;;;;;0.80;0.80;;;5.10;99.90;;;;;;5041590;28;20187;-80
2023/12/20 05:11:04;;;;;;;0.70;0.70;;;5.10;99.90;;;;;;5046417;28;20176;-81
2023/12/20 05:13:30;;;;;;;0.87;0.87;;;5.10;99.90;;;;;;5039005;28;20180;-80
2023/12/20 05:15:56;;;;;;;0.80;0.80;;;5.10;99.90;;;;;;5038864;28;20219;-81
2023/12/20 05:18:22;;;;;;;0.73;0.73;;;5.10;99.90;;;;;;5037643;28;20180;-81
2023/12/20 05:20:48;;;;;;;0.70;0.70;;;5.10;99.90;;;;;;5037765;28;20318;-80
2023/12/20 05:23:14;;;;;;;0.80;0.80;;;5.10;99.90;;;;;;5037784;28;20207;-81
2023/12/20 05:25:40;;;;;;;0.80;0.80;;;5.10;99.90;;;;;;5037586;28;20239;-81
2023/12/20 05:28:05;;;;;;;0.70;0.70;;;5.10;99.90;;;;;;5038068;28;20176;-81
2023/12/20 05:30:31;;;;;;;0.77;0.77;;;5.10;99.90;;;;;;5037878;28;20255;-81
2023/12/20 05:32:57;;;;;;;0.80;0.80;;;5.10;99.90;;;;;;5037709;28;20234;-82
2023/12/20 05:35:23;;;;;;;0.80;0.80;;;5.10;99.90;;;;;;5037264;28;20175;-81
2023/12/20 05:37:49;;;;;;;0.70;0.70;;;5.10;99.90;;;;;;5038324;28;20610;-81
2023/12/20 05:40:14;;;;;;;0.70;0.70;;;5.10;99.90;;;;;;5037465;28;20190;-81
2023/12/20 05:42:40;;;;;;;0.80;0.80;;;5.20;99.90;;;;;;5036758;28;20175;-82
2023/12/20 05:45:06;;;;;;;0.80;0.80;;;5.20;99.90;;;;;;5036023;28;20235;-81
2023/12/20 05:47:31;;;;;;;0.70;0.70;;;5.00;99.90;;;;;;5034967;28;20200;-81
2023/12/20 05:49:57;;;;;;;0.77;0.77;;;5.10;99.90;;;;;;5036121;28;20318;-80
2023/12/20 05:52:23;;;;;;;0.70;0.70;;;5.10;99.90;;;;;;5045166;28;20310;-80
2023/12/20 05:54:48;;;;;;;0.80;0.80;;;5.10;99.90;;;;;;5054324;28;20176;-80
2023/12/20 05:57:14;;;;;;;0.80;0.80;;;5.10;99.90;;;;;;5054552;28;20216;-80
2023/12/20 05:59:40;;;;;;;0.80;0.80;;;5.00;99.90;;;;;;5054248;28;20175;-80
2023/12/20 06:02:05;;;;;;;0.80;0.80;;;5.00;99.90;;;;;;5037426;28;20184;-81
2023/12/20 06:04:31;;;;;;;0.70;0.70;;;5.00;99.90;;;;;;5051244;28;20210;-79
2023/12/20 06:06:56;;;;;;;0.70;0.70;;;5.00;99.90;;;;;;5053597;28;20199;-79
2023/12/20 06:09:22;;;;;;;0.70;0.70;;;5.00;99.90;;;;;;5050359;28;20251;-81
2023/12/20 06:11:47;;;;;;;0.73;0.73;;;5.00;99.90;;;;;;5039076;28;20218;-81
2023/12/20 06:14:13;;;;;;;0.70;0.70;;;5.00;99.90;;;;;;5038815;28;20176;-82
2023/12/20 06:16:39;;;;;;;0.70;0.70;;;5.00;99.90;;;;;;5036967;28;20206;-82
2023/12/20 06:19:04;;;;;;;0.80;0.80;;;4.90;99.90;;;;;;5037849;28;20231;-80
2023/12/20 06:21:30;;;;;;;0.80;0.80;;;4.90;99.90;;;;;;5038455;28;20190;-81
2023/12/20 06:23:55;;;;;;;0.80;0.80;;;4.90;99.90;;;;;;5039996;28;20168;-82
2023/12/20 06:26:21;;;;;;;0.70;0.70;;;4.90;99.90;;;;;;5035591;28;20689;-81
2023/12/20 06:28:46;;;;;;;0.70;0.70;;;4.90;99.90;;;;;;5035439;28;20586;-80
2023/12/20 06:31:12;;;;;;;0.80;0.80;;;4.90;99.90;;;;;;5035305;28;20183;-80
2023/12/20 06:33:40;;;;;;;0.70;0.70;;;4.90;99.90;;;;;;5035777;28;20172;-80
2023/12/20 06:36:06;;;;;;;0.80;0.80;;;5.00;99.90;;;;;;5038819;28;20184;-79
2023/12/20 06:38:31;;;;;;;0.87;0.87;;;5.20;99.90;;;;;;5047557;28;20194;-82
2023/12/20 06:40:58;;;;;;;0.77;0.77;;;5.20;99.90;;;;;;5037169;28;20199;-82
2023/12/20 06:43:24;;;;;;;0.80;0.80;;;5.20;99.90;;;;;;5037765;28;20180;-81
2023/12/20 06:45:50;;;;;;;0.80;0.80;;;5.10;99.90;;;;;;5036370;28;20715;-81
2023/12/20 06:48:16;;;;;;;0.70;0.70;;;5.10;99.90;;;;;;5037858;28;20606;-82
2023/12/20 06:50:42;;;;;;;0.80;0.80;;;5.00;99.90;;;;;;5037246;28;20179;-82
2023/12/20 06:53:07;;;;;;;0.80;0.80;;;5.00;99.90;;;;;;5037524;28;20233;-82
2023/12/20 06:55:35;;;;;;;0.70;0.70;;;5.00;99.90;;;;;;5036970;28;20199;-80
2023/12/20 06:58:02;;;;;;;0.80;0.80;;;5.00;99.90;;;;;;5036467;28;20611;-82
2023/12/20 07:00:27;;;;;;;0.80;0.80;;;5.00;99.90;;;;;;5035963;28;20279;-80
2023/12/20 07:02:53;;;;;;;0.70;0.70;;;5.00;99.90;;;;;;5036199;28;20251;-81
2023/12/20 07:05:19;;;;;;;0.80;0.80;;;4.90;99.90;;;;;;5033920;28;20578;-81
2023/12/20 07:07:46;;;;;;;0.80;0.80;;;4.90;99.90;;;;;;5029443;28;20177;-81
2023/12/20 07:10:13;;;;;;;0.80;0.80;;;4.90;99.90;;;;;;5026350;28;20255;-82
2023/12/20 07:12:39;;;;;;;0.80;0.80;;;4.90;99.90;;;;;;5024510;28;20175;-81
2023/12/20 07:15:07;;;;;;;0.80;0.80;;;4.90;99.90;;;;;;5037830;28;20205;-79
2023/12/20 07:17:33;;;;;;;0.80;0.80;;;5.00;99.90;;;;;;5041929;28;20205;-79
2023/12/20 07:20:03;;;;;;;0.70;0.70;;;5.00;99.90;;;;;;5027828;28;20199;-81
2023/12/20 07:22:31;;;;;;;0.70;0.70;;;5.10;99.90;;;;;;5026833;28;20822;-83
2023/12/20 07:24:58;;;;;;;0.80;0.80;;;5.10;99.90;;;;;;5026914;28;20721;-80
2023/12/20 07:27:23;;;;;;;0.80;0.80;;;5.10;99.90;;;;;;5025470;28;20242;-80
2023/12/20 07:29:49;;;;;;;0.80;0.80;;;5.10;99.90;;;;;;5025522;28;20544;-82
2023/12/20 07:32:14;;;;;;;0.80;0.80;;;5.00;99.90;;;;;;5025647;28;20176;-80
2023/12/20 07:34:40;;;;;;;0.80;0.80;;;5.10;99.90;;;;;;5025084;28;20176;-81
2023/12/20 07:37:06;;;;;;;0.90;0.90;;;5.10;99.90;;;;;;5025585;28;20803;-80
2023/12/20 07:39:31;;;;;;;0.70;0.70;;;5.10;99.90;;;;;;5026820;28;20658;-81
2023/12/20 07:41:57;;;;;;;0.80;0.80;;;5.10;99.90;;;;;;5028404;28;20646;-82
2023/12/20 07:44:22;;;;;;;0.80;0.80;;;5.00;99.90;;;;;;5029522;28;20215;-82
2023/12/20 07:46:48;;;;;;;0.90;0.90;;;5.00;99.90;;;;;;5029455;28;20203;-82
2023/12/20 07:49:14;;;;;;;0.80;0.80;;;5.10;99.90;;;;;;5034032;28;20175;-82
2023/12/20 07:51:42;;;;;;;0.80;0.80;;;5.10;99.90;;;;;;5032093;28;20220;-81
2023/12/20 07:54:08;;;;;;;0.80;0.80;;;5.10;99.90;;;;;;5033489;28;20510;-82
2023/12/20 07:56:33;;;;;;;0.80;0.80;;;5.20;99.90;;;;;;5033461;28;20278;-81
2023/12/20 07:59:03;;;;;;;0.70;0.70;;;5.20;99.90;;;;;;5032737;28;20230;-82
2023/12/20 08:01:29;;;;;;;0.83;0.83;;;5.20;99.90;;;;;;5030223;28;20484;-82
2023/12/20 08:03:54;;;;;;;0.80;0.80;;;5.30;99.90;;;;;;5027018;28;20191;-82
2023/12/20 08:06:21;;;;;;;0.80;0.80;;;5.20;99.90;;;;;;5025525;28;20201;-81
2023/12/20 08:08:46;;;;;;;0.70;0.70;;;5.80;99.90;;;;;;5027467;28;20175;-82
2023/12/20 08:11:12;;;;;;;0.70;0.70;;;5.20;99.90;;;;;;5035929;28;20269;-81
2023/12/20 08:13:38;;;;;;;0.80;0.80;;;5.20;99.90;;;;;;5035781;28;20514;-82
2023/12/20 08:16:04;;;;;;;0.80;0.80;;;5.20;99.90;;;;;;5035738;28;20254;-80
2023/12/20 08:18:29;;;;;;;0.80;0.80;;;5.10;99.90;;;;;;5034799;28;20688;-82
2023/12/20 08:20:55;;;;;;;0.80;0.80;;;5.20;99.90;;;;;;5035041;28;20215;-81
2023/12/20 08:23:21;;;;;;;0.70;0.70;;;5.30;99.90;;;;;;5036404;28;20203;-81
2023/12/20 08:25:48;;;;;;;0.73;0.73;;;5.30;99.90;;;;;;5035227;28;20225;-82
2023/12/20 08:28:13;;;;;;;0.80;0.80;;;5.30;99.90;;;;;;5037579;28;20649;-81
2023/12/20 08:30:39;;;;;;;0.80;0.80;;;5.30;99.90;;;;;;5045946;28;20187;-81
2023/12/20 08:33:07;;;;;;;0.70;0.70;;;5.30;99.90;;;;;;5055689;28;20198;-80
2023/12/20 08:35:33;;;;;;;0.80;0.80;;;5.30;99.90;;;;;;5053905;28;20191;-80
2023/12/20 08:37:58;;;;;;;0.70;0.70;;;5.30;99.90;;;;;;5053863;28;20179;-82
2023/12/20 08:40:24;;;;;;;0.70;0.70;;;5.30;99.90;;;;;;5052327;28;20182;-79
2023/12/20 08:42:49;;;;;;;0.80;0.80;;;5.30;99.90;;;;;;5042947;28;20629;-81
2023/12/20 08:45:15;;;;;;;0.70;0.70;;;5.30;99.90;;;;;;5039210;28;20681;-80
2023/12/20 08:47:41;;;;;;;0.73;0.73;;;5.30;99.90;;;;;;5040129;28;20176;-82
2023/12/20 08:50:07;;;;;;;0.70;0.70;;;5.30;99.90;;;;;;5039081;28;20187;-82
2023/12/20 08:52:33;;;;;;;0.70;0.70;;;5.20;99.90;;;;;;5038477;28;20681;-81
2023/12/20 08:54:58;;;;;;;0.70;0.70;;;5.20;99.90;;;;;;5039129;28;20180;-81
2023/12/20 08:57:25;;;;;;;0.80;0.80;;;5.30;99.90;;;;;;5038755;28;20191;-81
2023/12/20 08:59:50;;;;;;;0.70;0.70;;;5.30;99.90;;;;;;5039361;28;20322;-80
2023/12/20 09:02:16;;;;;;;0.80;0.80;;;5.20;99.90;;;;;;5039156;28;20314;-80
2023/12/20 09:04:42;;;;;;;0.83;0.83;;;5.30;99.90;;;;;;5039241;28;20697;-82
2023/12/20 09:07:22;;;;;;;0.73;0.73;;;5.30;99.90;;;;;;5039298;28;20680;-82
2023/12/20 09:09:47;;;;;;;0.80;0.80;;;5.30;99.90;;;;;;5039407;28;20176;-82
2023/12/20 09:12:13;;;;;;;0.80;0.80;;;5.20;99.90;;;;;;5038641;28;20176;-80
2023/12/20 09:14:38;;;;;;;0.80;0.80;;;5.20;99.90;;;;;;5039692;28;20168;-80
2023/12/20 09:17:08;;;;;;;0.83;0.83;;;5.20;99.90;;;;;;5039368;28;20219;-82
2023/12/20 09:19:33;;;;;;;0.70;0.70;;;5.30;99.90;;;;;;5039691;28;20218;-81
2023/12/20 09:21:59;;;;;;;0.70;0.70;;;5.40;99.90;;;;;;5039011;28;20209;-81
2023/12/20 09:24:24;;;;;;;0.80;0.80;;;5.40;99.90;;;;;;5055904;28;20241;-79
2023/12/20 09:26:50;;;;;;;0.87;0.87;;;5.30;99.90;;;;;;5058988;28;20222;-80
2023/12/20 09:29:16;;;;;;;0.73;0.73;;;5.40;99.90;;;;;;5059345;28;20171;-79
2023/12/20 09:31:43;;;;;;;0.80;0.80;;;5.60;60.00;;;;;;5059336;28;20164;-80
2023/12/20 09:34:09;;;;;;;0.60;0.60;;;5.80;35.90;;;;;;5035820;28;20179;-81
2023/12/20 09:36:36;;;;;;;0.70;0.70;;;6.00;1.00;;;;;;5035559;28;20200;-81
2023/12/20 09:39:03;;;;;;;0.70;0.70;;;6.90;1.00;;;;;;5034003;28;20195;-80
2023/12/20 09:41:35;;;;;;;0.80;0.80;;;6.60;1.00;;;;;;5035514;28;20184;-81
2023/12/20 09:44:02;;;;;;;0.70;0.70;;;8.20;1.00;;;;;;5037968;28;20581;-81
2023/12/20 09:46:32;;;;;;;0.70;0.70;;;8.20;99.90;;;;;;5040369;28;20196;-79
2023/12/20 09:49:00;;;;;;;0.60;0.60;;;9.70;1.00;;;;;;5055739;28;20235;-81
2023/12/20 09:51:29;;;;;;;0.50;0.50;;;9.60;1.00;;;;;;5042151;28;20194;-82
2023/12/20 09:53:56;;;;;;;0.50;0.50;;;8.90;1.00;;;;;;5041838;28;20194;-82
2023/12/20 09:56:22;;;;;;;0.60;0.60;;;9.00;1.00;;;;;;5042087;28;20204;-82
2023/12/20 09:58:48;;;;;;;0.40;0.40;;;10.70;1.00;;;;;;5041678;28;20179;-82
2023/12/20 10:01:15;;;;;;;0.40;0.40;;;12.20;99.90;;;;;;5042008;28;20198;-83
2023/12/20 10:03:42;;;;;;;0.30;0.30;;;12.80;1.00;;;;;;5039059;28;20183;-82
2023/12/20 10:06:09;;;;;;;0.50;0.50;;;13.50;1.00;;;;;;5040089;28;20227;-83
2023/12/20 10:08:35;;;;;;;0.30;0.30;;;13.20;1.00;;;;;;5031257;28;20185;-82
2023/12/20 10:11:02;;;;;;;0.40;0.40;;;14.00;1.00;;;;;;5028913;28;20173;-81
2023/12/20 10:13:28;;;;;;;0.40;0.40;;;14.30;1.00;;;;;;5035978;28;20185;-83
2023/12/20 10:15:55;;;;;;;0.33;0.33;;;14.30;1.00;;;;;;5035278;28;20207;-82
2023/12/20 10:18:21;;;;;;;0.30;0.30;;;14.30;1.00;;;;;;5037936;28;20188;-81
2023/12/20 10:20:47;;;;;;;0.37;0.37;;;15.40;1.00;;;;;;5037597;28;20165;-82
2023/12/20 10:23:15;;;;;;;0.40;0.40;;;15.10;1.00;;;;;;5038669;28;20245;-81
2023/12/20 10:25:44;;;;;;;0.30;0.30;;;14.20;1.00;;;;;;5038233;28;20212;-81
2023/12/20 10:28:18;;;;;;;0.50;0.50;;;14.10;1.00;;;;;;5026656;28;20204;-82
2023/12/20 10:30:44;;;;;;;0.43;0.43;;;15.00;1.00;;;;;;5017196;28;20182;-83
2023/12/20 10:33:10;;;;;;;0.40;0.40;;;14.40;1.00;;;;;;5035109;28;20243;-83
2023/12/20 10:35:38;;;;;;;0.40;0.40;;;13.80;1.00;;;;;;5038904;28;20255;-83
2023/12/20 10:38:05;;;;;;;0.40;0.40;;;14.20;1.00;;;;;;5030404;28;20180;-83
2023/12/20 10:40:33;;;;;;;0.40;0.40;;;13.90;1.00;;;;;;5028351;28;20251;-82
2023/12/20 10:43:02;;;;;;;0.50;0.50;;;13.50;1.00;;;;;;5023174;28;20169;-82
2023/12/20 10:45:27;;;;;;;0.43;0.43;;;13.40;1.00;;;;;;5032090;28;20210;-80
2023/12/20 10:47:53;;;;;;;0.57;0.57;;;11.00;1.00;;;;;;5042205;28;20172;-80
2023/12/20 10:50:20;;;;;;;0.50;0.50;;;11.40;1.00;;;;;;5054975;28;20182;-82
2023/12/20 10:52:47;;;;;;;0.53;0.53;;;12.40;1.00;;;;;;5035211;28;20176;-81
2023/12/20 10:55:13;;;;;;;0.47;0.47;;;12.30;1.00;;;;;;5031484;28;20180;-81
2023/12/20 10:57:39;;;;;;;0.60;0.60;;;11.90;1.00;;;;;;5034432;28;20207;-81
2023/12/20 11:00:08;;;;;;;0.50;0.50;;;11.40;1.00;;;;;;5037130;28;20184;-81
2023/12/20 11:02:39;;;;;;;0.50;0.50;;;11.50;1.00;;;;;;5037132;28;20179;-81
2023/12/20 11:05:33;;;;;;;0.40;0.40;;;11.10;1.00;;;;;;5037196;28;20764;-82
2023/12/20 11:08:09;;;;;;;0.40;0.40;;;11.00;1.00;;;;;;5038115;28;20214;-83
2023/12/20 11:10:43;;;;;;;0.50;0.50;;;10.30;1.00;;;;;;5035128;28;20179;-82
2023/12/20 11:13:23;;;;;;;0.50;0.50;;;10.80;1.00;;;;;;5038044;28;20170;-81
2023/12/20 11:15:49;;;;;;;0.60;0.60;;;9.80;1.00;;;;;;5037284;28;20207;-83
2023/12/20 11:18:16;;;;;;;0.50;0.50;;;9.10;1.00;;;;;;5037070;28;20247;-83
2023/12/20 11:20:42;;;;;;;0.50;0.50;;;8.60;99.90;;;;;;5037390;28;20206;-82
2023/12/20 11:23:09;;;;;;;0.70;0.70;;;8.20;99.90;;;;;;5036213;28;20188;-82
2023/12/20 11:25:57;;;;;;;0.60;0.60;;;7.70;99.90;;;;;;5035267;28;20242;-82
2023/12/20 11:28:24;;;;;;;0.63;0.63;;;7.40;1.00;;;;;;5036076;28;20202;-83
2023/12/20 11:30:52;;;;;;;0.70;0.70;;;7.20;1.00;;;;;;5037821;28;20665;-82
2023/12/20 11:33:24;;;;;;;0.63;0.63;;;7.00;1.00;;;;;;5037037;28;20275;-83
2023/12/20 11:35:52;;;;;;;0.70;0.70;;;6.90;99.90;;;;;;5037991;28;20200;-83
2023/12/20 11:38:21;;;;;;;0.80;0.80;;;7.70;99.90;;;;;;5046073;28;20187;-82
2023/12/20 11:40:48;;;;;;;0.73;0.73;;;7.10;99.90;;;;;;5049963;28;20215;-82
2023/12/20 11:43:30;;;;;;;0.70;0.70;;;7.20;99.90;;;;;;5054907;28;20186;-82
2023/12/20 11:46:03;;;;;;;0.60;0.60;;;7.00;1.00;;;;;;5053223;28;20227;-80
2023/12/20 11:48:31;;;;;;;0.60;0.60;;;6.80;1.00;;;;;;5050137;28;20196;-81
2023/12/20 11:50:56;;;;;;;0.63;0.63;;;6.70;92.70;;;;;;5055344;28;20195;-80
2023/12/20 11:53:22;;;;;;;0.70;0.70;;;6.70;1.00;;;;;;5045434;28;20389;-81
2023/12/20 11:55:49;;;;;;;0.70;0.70;;;7.00;1.00;;;;;;5034196;28;20211;-83
2023/12/20 11:58:16;;;;;;;0.70;0.70;;;7.00;1.00;;;;;;5034674;28;20267;-82
2023/12/20 12:00:45;;;;;;;0.70;0.70;;;7.10;88.50;;;;;;5028202;28;20239;-81
2023/12/20 12:03:14;;;;;;;0.70;0.70;;;7.00;21.60;;;;;;5033108;28;20673;-82
2023/12/20 12:05:40;;;;;;;0.60;0.60;;;7.00;99.90;;;;;;5026087;28;20289;-82
2023/12/20 12:08:06;;;;;;;0.73;0.73;;;6.90;1.00;;;;;;5031968;28;20195;-83
2023/12/20 12:10:31;;;;;;;0.70;0.70;;;6.70;1.00;;;;;;5032432;28;20563;-82
2023/12/20 12:12:57;;;;;;;0.70;0.70;;;6.50;1.00;;;;;;5036296;28;20237;-83
2023/12/20 12:15:22;;;;;;;0.77;0.77;;;6.40;1.00;;;;;;5034192;28;20172;-82
2023/12/20 12:17:55;;;;;;;0.70;0.70;;;6.30;1.00;;;;;;5035225;28;20176;-83
2023/12/20 12:20:21;;;;;;;0.70;0.70;;;6.20;1.00;;;;;;5012425;28;20173;-82
2023/12/20 12:22:58;;;;;;;0.80;0.80;;;6.20;1.00;;;;;;5032515;28;20226;-83
2023/12/20 12:25:23;;;;;;;0.80;0.80;;;6.10;21.20;;;;;;5026261;28;20195;-84
2023/12/20 12:27:51;;;;;;;0.80;0.80;;;6.10;1.00;;;;;;5037700;28;20234;-84
2023/12/20 12:30:18;;;;;;;0.80;0.80;;;6.10;1.00;;;;;;5037822;28;20179;-83
2023/12/20 12:32:44;;;;;;;0.70;0.70;;;6.10;1.00;;;;;;5040256;28;20218;-84
2023/12/20 12:35:10;;;;;;;0.70;0.70;;;6.10;1.00;;;;;;5040143;28;20187;-84
2023/12/20 12:37:38;;;;;;;0.63;0.63;;;6.00;1.00;;;;;;5039239;28;20195;-83
2023/12/20 12:40:06;;;;;;;0.80;0.80;;;6.00;1.00;;;;;;5036102;28;20184;-84
2023/12/20 12:42:31;;;;;;;0.70;0.70;;;6.10;99.90;;;;;;5034140;28;20196;-82
2023/12/20 12:44:57;;;;;;;0.77;0.77;;;6.10;99.90;;;;;;5035975;28;20274;-84
2023/12/20 12:47:22;;;;;;;0.80;0.80;;;6.10;1.00;;;;;;5036437;28;20303;-82
2023/12/20 12:49:51;;;;;;;0.80;0.80;;;6.00;62.40;;;;;;5035914;28;20184;-83
2023/12/20 12:52:16;;;;;;;0.83;0.83;;;6.10;1.00;;;;;;5035525;28;20176;-81
2023/12/20 12:54:43;;;;;;;0.80;0.80;;;6.00;99.90;;;;;;5033537;28;20230;-82